Overview Statistics Trail Chart Weather Telemetry Raw packets
 

This is the latest recevied weather packets stored in our database for station/object EA1CZ-11. If no packets are shown the sender has not sent any weather packets the latest 10 day(s).

<< 1 2 3 4 5 >>
Time Temp. Humidity Pressure Rain* Wind** Luminosity Snow
1788363109 31.11° C 45% 1002.6 hPa - - - -
1788362209 31.11° C 44% 1002.6 hPa - - - -
1788361309 31.67° C 45% 1002.6 hPa - - - -
1788360425 31.67° C 46% 1002.7 hPa - - - -
1788359509 31.67° C 46% 1002.7 hPa - - - -
1788358609 31.67° C 47% 1002.8 hPa - - - -
1788357709 31.67° C 48% 1002.7 hPa - - - -
1788356809 31.67° C 48% 1002.8 hPa - - - -
1788355909 31.67° C 49% 1002.8 hPa - - - -
1788355008 31.67° C 50% 1002.8 hPa - - - -
1788354108 31.11° C 50% 1002.6 hPa - - - -
1788353228 31.11° C 50% 1002.7 hPa - - - -
1788352308 31.11° C 51% 1002.7 hPa - - - -
1788351408 31.11° C 52% 1002.6 hPa - - - -
1788350508 30.56° C 52% 1002.7 hPa - - - -
1788349607 30.56° C 52% 1002.7 hPa - - - -
1788348707 30° C 53% 1002.7 hPa - - - -
1788347807 30° C 53% 1002.7 hPa - - - -
1788346907 29.44° C 53% 1002.6 hPa - - - -
1788346027 29.44° C 53% 1002.7 hPa - - - -
1788345107 28.89° C 54% 1002.6 hPa - - - -
1788344206 28.33° C 54% 1002.4 hPa - - - -
1788343306 28.33° C 54% 1002.4 hPa - - - -
1788342406 27.78° C 54% 1002.3 hPa - - - -
1788341506 27.22° C 55% 1002.2 hPa - - - -

* Rain since midnight (hover to see other rain measurements)
** Current wind speed in m/s (hover to see current wind gust speed)